createdAt,value
2023-02-18T00:01:16.649Z,101066.91
2023-02-18T00:03:46.410Z,101065.19
2023-02-18T00:06:17.550Z,101055.94
2023-02-18T00:08:45.014Z,101059.88
2023-02-18T00:11:12.242Z,101053.50
2023-02-18T00:13:39.056Z,101061.56
2023-02-18T00:16:09.730Z,101055.22
2023-02-18T00:18:37.035Z,101053.03
2023-02-18T00:21:05.520Z,101062.22
2023-02-18T00:23:32.522Z,101060.59
2023-02-18T00:26:01.223Z,101045.00
2023-02-18T00:28:27.630Z,101048.25
2023-02-18T00:30:54.079Z,101043.44
2023-02-18T00:33:20.491Z,101044.53
2023-02-18T00:35:46.844Z,101041.47
2023-02-18T00:38:13.213Z,101055.75
2023-02-18T00:40:40.613Z,101046.44
2023-02-18T00:43:06.936Z,101048.75
2023-02-18T00:45:33.276Z,101052.34
2023-02-18T00:47:59.656Z,101053.16
2023-02-18T00:50:26.047Z,101057.84
2023-02-18T00:52:52.357Z,101055.25
2023-02-18T00:55:18.662Z,101043.50
2023-02-18T00:57:44.963Z,101057.34
2023-02-18T01:00:11.796Z,101055.09
2023-02-18T01:02:38.142Z,101046.56
2023-02-18T01:05:04.764Z,101049.84
2023-02-18T01:07:31.100Z,101047.72
2023-02-18T01:09:57.486Z,101046.72
2023-02-18T01:12:23.801Z,101050.53
2023-02-18T01:14:50.111Z,101045.13
2023-02-18T01:17:16.451Z,101042.22
2023-02-18T01:19:42.833Z,101037.09
2023-02-18T01:22:09.244Z,101044.41
2023-02-18T01:24:35.566Z,101045.22
2023-02-18T01:27:01.848Z,101031.44
2023-02-18T01:29:28.159Z,101036.63
2023-02-18T01:31:54.602Z,101034.47
2023-02-18T01:34:21.082Z,101023.13
2023-02-18T01:36:47.370Z,101032.38
2023-02-18T01:39:13.679Z,101037.78
2023-02-18T01:41:39.969Z,101033.19
2023-02-18T01:44:27.108Z,101031.50
2023-02-18T01:46:53.746Z,101022.09
2023-02-18T01:49:38.846Z,101016.69
2023-02-18T01:52:11.561Z,101015.03
2023-02-18T01:54:45.180Z,101005.38
2023-02-18T01:57:23.408Z,100997.00
2023-02-18T01:59:56.355Z,101001.94
2023-02-18T02:02:26.427Z,100987.59
2023-02-18T02:04:54.129Z,100998.13
2023-02-18T02:07:23.827Z,101000.31
2023-02-18T02:09:52.421Z,100990.88
2023-02-18T02:12:53.992Z,100988.19
2023-02-18T02:15:38.236Z,100983.84
2023-02-18T02:18:19.817Z,100977.63
2023-02-18T02:21:25.716Z,100970.63
2023-02-18T02:24:24.501Z,100969.03
2023-02-18T02:27:09.455Z,100961.97
2023-02-18T02:30:00.493Z,100949.25
2023-02-18T02:32:59.029Z,100953.59
2023-02-18T02:35:32.267Z,100953.31
2023-02-18T02:38:07.490Z,100938.22
2023-02-18T02:40:57.596Z,100934.69
2023-02-18T02:43:39.957Z,100931.97
2023-02-18T02:46:17.889Z,100934.69
2023-02-18T02:48:56.065Z,100942.28
2023-02-18T02:51:28.505Z,100920.94
2023-02-18T02:53:54.883Z,100929.34
2023-02-18T02:56:24.707Z,100909.63
2023-02-18T02:59:00.454Z,100912.06
2023-02-18T03:01:48.681Z,100911.22
2023-02-18T03:04:22.989Z,100915.56
2023-02-18T03:07:11.078Z,100905.56
2023-02-18T03:09:49.242Z,100903.38
2023-02-18T03:12:35.918Z,100901.22
2023-02-18T03:15:12.953Z,100905.56
2023-02-18T03:17:56.981Z,100879.59
2023-02-18T03:20:31.517Z,100877.41
2023-02-18T03:23:02.759Z,100873.06
2023-02-18T03:25:31.864Z,100866.31
2023-02-18T03:28:14.337Z,100862.78
2023-02-18T03:30:58.734Z,100857.38
2023-02-18T03:33:40.547Z,100858.19
2023-02-18T03:36:08.097Z,100853.63
2023-02-18T03:38:44.035Z,100842.25
2023-02-18T03:41:10.377Z,100844.94
2023-02-18T03:43:36.812Z,100848.44
2023-02-18T03:46:03.879Z,100837.91
2023-02-18T03:48:30.223Z,100826.81
2023-02-18T03:50:56.523Z,100828.16
2023-02-18T03:53:22.882Z,100823.81
2023-02-18T03:55:49.243Z,100828.97
2023-02-18T03:58:15.572Z,100825.44
2023-02-18T04:00:41.904Z,100813.00
2023-02-18T04:03:08.404Z,100818.44
2023-02-18T04:05:34.728Z,100804.88
2023-02-18T04:08:01.042Z,100810.56
2023-02-18T04:10:27.452Z,100804.63
2023-02-18T04:12:53.914Z,100806.25
2023-02-18T04:15:20.237Z,100804.59
2023-02-18T04:17:46.549Z,100794.63
2023-02-18T04:20:12.976Z,100798.34
2023-02-18T04:22:39.273Z,100787.53
2023-02-18T04:25:05.927Z,100795.69
2023-02-18T04:27:32.236Z,100784.81
2023-02-18T04:29:58.916Z,100782.97
2023-02-18T04:32:25.292Z,100777.81
2023-02-18T04:34:51.786Z,100776.72
2023-02-18T04:37:18.097Z,100770.22
2023-02-18T04:39:44.417Z,100771.88
2023-02-18T04:42:10.730Z,100769.16
2023-02-18T04:44:37.728Z,100772.41
2023-02-18T04:47:05.607Z,100761.53
2023-02-18T04:49:32.143Z,100761.03
2023-02-18T04:51:58.486Z,100756.69
2023-02-18T04:54:24.894Z,100750.75
2023-02-18T04:56:51.229Z,100744.25
2023-02-18T04:59:17.528Z,100740.75
2023-02-18T05:01:43.889Z,100740.44
2023-02-18T05:04:10.263Z,100739.38
2023-02-18T05:06:36.603Z,100733.41
2023-02-18T05:09:02.978Z,100720.69
2023-02-18T05:11:29.278Z,100725.31
2023-02-18T05:13:55.585Z,100729.06
2023-02-18T05:16:22.943Z,100729.56
2023-02-18T05:18:49.244Z,100719.84
2023-02-18T05:21:15.605Z,100714.91
2023-02-18T05:23:41.978Z,100720.59
2023-02-18T05:26:08.793Z,100711.66
2023-02-18T05:28:35.317Z,100711.13
2023-02-18T05:31:01.714Z,100703.00
2023-02-18T05:33:28.175Z,100700.25
2023-02-18T05:35:54.492Z,100695.09
2023-02-18T05:38:20.886Z,100687.69
2023-02-18T05:40:47.270Z,100680.34
2023-02-18T05:43:14.016Z,100681.09
2023-02-18T05:45:40.340Z,100671.91
2023-02-18T05:48:07.091Z,100671.91
2023-02-18T05:50:33.720Z,100665.41
2023-02-18T05:53:00.029Z,100651.63
2023-02-18T05:55:26.542Z,100647.09
2023-02-18T05:57:53.162Z,100640.22
2023-02-18T06:00:20.246Z,100645.44
2023-02-18T06:02:46.653Z,100636.81
2023-02-18T06:05:13.028Z,100634.56
2023-02-18T06:07:39.358Z,100634.56
2023-02-18T06:10:06.585Z,100623.25
2023-02-18T06:12:32.908Z,100625.97
2023-02-18T06:14:59.213Z,100616.69
2023-02-18T06:17:25.519Z,100615.59
2023-02-18T06:19:51.846Z,100610.72
2023-02-18T06:22:18.158Z,100613.34
2023-02-18T06:24:44.640Z,100614.47
2023-02-18T06:27:10.935Z,100612.81
2023-02-18T06:29:37.235Z,100602.78
2023-02-18T06:32:03.740Z,100598.13
2023-02-18T06:34:30.310Z,100606.25
2023-02-18T06:36:56.841Z,100594.72
2023-02-18T06:39:23.228Z,100595.03
2023-02-18T06:41:49.543Z,100593.34
2023-02-18T06:44:15.868Z,100585.00
2023-02-18T06:46:42.255Z,100584.66
2023-02-18T06:49:08.592Z,100584.06
2023-02-18T06:51:34.991Z,100575.88
2023-02-18T06:54:01.313Z,100580.03
2023-02-18T06:56:28.382Z,100579.75
2023-02-18T06:58:55.832Z,100563.13
2023-02-18T07:01:22.137Z,100569.47
2023-02-18T07:03:50.212Z,100566.19
2023-02-18T07:06:16.877Z,100565.88
2023-02-18T07:08:43.213Z,100566.81
2023-02-18T07:11:09.529Z,100567.84
2023-02-18T07:13:35.978Z,100561.03
2023-02-18T07:16:02.385Z,100543.44
2023-02-18T07:18:28.741Z,100552.44
2023-02-18T07:20:55.048Z,100546.13
2023-02-18T07:23:21.416Z,100541.16
2023-02-18T07:25:47.724Z,100545.50
2023-02-18T07:28:14.110Z,100535.47
2023-02-18T07:30:40.417Z,100545.97
2023-02-18T07:33:06.760Z,100546.00
2023-02-18T07:35:33.061Z,100542.41
2023-02-18T07:37:59.402Z,100535.59
2023-02-18T07:40:25.700Z,100546.44
2023-02-18T07:42:52.014Z,100538.06
2023-02-18T07:45:18.432Z,100532.75
2023-02-18T07:47:44.969Z,100530.28
2023-02-18T07:50:11.428Z,100534.13
2023-02-18T07:52:37.923Z,100531.72
2023-02-18T07:55:04.458Z,100527.91
2023-02-18T07:57:30.776Z,100528.81
2023-02-18T07:59:57.102Z,100543.72
2023-02-18T08:02:24.542Z,100533.13
2023-02-18T08:04:51.353Z,100538.34
2023-02-18T08:07:20.348Z,100538.34
2023-02-18T08:09:46.712Z,100544.22
2023-02-18T08:12:13.025Z,100536.84
2023-02-18T08:14:39.320Z,100533.38
2023-02-18T08:17:05.636Z,100535.25
2023-02-18T08:19:31.946Z,100525.78
2023-02-18T08:22:01.788Z,100532.81
2023-02-18T08:24:28.121Z,100528.97
2023-02-18T08:27:00.927Z,100524.94
2023-02-18T08:29:28.020Z,100526.84
2023-02-18T08:31:54.511Z,100524.00
2023-02-18T08:34:20.951Z,100532.31
2023-02-18T08:36:47.236Z,100528.81
2023-02-18T08:39:13.552Z,100534.72
2023-02-18T08:41:39.856Z,100528.63
2023-02-18T08:44:06.169Z,100519.56
2023-02-18T08:46:35.425Z,100515.53
2023-02-18T08:49:03.450Z,100520.94
2023-02-18T08:51:29.762Z,100508.53
2023-02-18T08:53:56.104Z,100530.41
2023-02-18T08:56:22.461Z,100527.38
2023-02-18T08:58:48.787Z,100510.09
2023-02-18T09:01:15.089Z,100517.59
2023-02-18T09:03:41.589Z,100510.44
2023-02-18T09:06:08.376Z,100505.81
2023-02-18T09:08:35.135Z,100507.78
2023-02-18T09:11:03.702Z,100500.19
2023-02-18T09:13:30.598Z,100502.78
2023-02-18T09:16:01.719Z,100496.19
2023-02-18T09:18:28.401Z,100495.03
2023-02-18T09:20:59.759Z,100485.56
2023-02-18T09:23:27.869Z,100489.53
2023-02-18T09:25:54.358Z,100488.28
2023-02-18T09:28:20.970Z,100481.41
2023-02-18T09:30:47.375Z,100504.25
2023-02-18T09:33:13.767Z,100498.19
2023-02-18T09:35:44.893Z,100492.25
2023-02-18T09:38:13.975Z,100492.41
2023-02-18T09:40:45.485Z,100504.78
2023-02-18T09:43:40.518Z,100507.41
2023-02-18T09:46:17.909Z,100491.81
2023-02-18T09:48:46.761Z,100498.41
2023-02-18T09:51:15.118Z,100491.59
2023-02-18T09:53:42.801Z,100487.56
2023-02-18T09:56:13.694Z,100504.19
2023-02-18T09:58:41.615Z,100493.22
2023-02-18T10:01:20.096Z,100511.81
2023-02-18T10:03:47.114Z,100474.28
2023-02-18T10:06:22.329Z,100463.50
2023-02-18T10:08:52.208Z,100480.94
2023-02-18T10:11:28.999Z,100494.72
2023-02-18T10:13:56.544Z,100477.38
2023-02-18T10:16:24.531Z,100484.34
2023-02-18T10:18:56.005Z,100478.16
2023-02-18T10:21:26.360Z,100471.50
2023-02-18T10:24:12.457Z,100476.34
2023-02-18T10:26:39.001Z,100479.72
2023-02-18T10:29:13.540Z,100493.13
2023-02-18T10:31:45.700Z,100498.50
2023-02-18T10:34:30.506Z,100514.13
2023-02-18T10:37:16.205Z,100513.44
2023-02-18T10:40:03.244Z,100497.06
2023-02-18T10:42:41.357Z,100491.34
2023-02-18T10:45:16.473Z,100496.50
2023-02-18T10:47:58.020Z,100490.88
2023-02-18T10:50:45.139Z,100485.41
2023-02-18T10:53:37.162Z,100487.25
2023-02-18T10:56:05.638Z,100494.31
2023-02-18T10:58:47.795Z,100503.09
2023-02-18T11:01:16.921Z,100502.22
2023-02-18T11:04:07.964Z,100500.63
2023-02-18T11:06:43.510Z,100507.84
2023-02-18T11:09:26.670Z,100505.88
2023-02-18T11:12:08.469Z,100500.16
2023-02-18T11:14:39.663Z,100507.22
2023-02-18T11:17:15.752Z,100504.69
2023-02-18T11:19:42.297Z,100511.59
2023-02-18T11:22:24.487Z,100515.34
2023-02-18T11:24:56.646Z,100507.69
2023-02-18T11:27:28.523Z,100505.06
2023-02-18T11:30:02.364Z,100512.75
2023-02-18T11:32:30.792Z,100499.84
2023-02-18T11:34:57.499Z,100512.13
2023-02-18T11:37:24.399Z,100509.59
2023-02-18T11:39:54.655Z,100506.06
2023-02-18T11:42:24.455Z,100504.22
2023-02-18T11:44:56.832Z,100512.19
2023-02-18T11:47:27.700Z,100518.75
2023-02-18T11:50:09.022Z,100511.78
2023-02-18T11:52:38.819Z,100533.19
2023-02-18T11:55:17.800Z,100518.38
2023-02-18T11:57:48.833Z,100523.13
2023-02-18T12:00:17.341Z,100520.66
2023-02-18T12:02:43.801Z,100510.41
2023-02-18T12:05:19.809Z,100509.97
2023-02-18T12:07:55.342Z,100514.59
2023-02-18T12:10:30.142Z,100506.28
2023-02-18T12:13:06.104Z,100506.41
2023-02-18T12:15:46.917Z,100512.31
2023-02-18T12:18:41.819Z,100501.84
2023-02-18T12:21:12.566Z,100517.47
2023-02-18T12:23:53.435Z,100511.13
2023-02-18T12:26:52.559Z,100517.97
2023-02-18T12:29:36.582Z,100508.59
2023-02-18T12:32:19.594Z,100518.72
2023-02-18T12:34:48.889Z,100519.22
2023-02-18T12:37:24.234Z,100531.06
2023-02-18T12:40:14.761Z,100521.25
2023-02-18T12:42:44.065Z,100522.84
2023-02-18T12:45:35.249Z,100533.03
2023-02-18T12:48:22.777Z,100515.06
2023-02-18T12:51:11.337Z,100519.38
2023-02-18T12:54:00.814Z,100519.69
2023-02-18T12:56:43.692Z,100526.13
2023-02-18T12:59:30.435Z,100525.19
2023-02-18T13:02:08.990Z,100531.44
2023-02-18T13:04:38.281Z,100532.94
2023-02-18T13:07:29.084Z,100521.25
2023-02-18T13:10:24.781Z,100529.47
2023-02-18T13:12:55.628Z,100523.59
2023-02-18T13:15:33.842Z,100536.00
2023-02-18T13:18:03.141Z,100530.91
2023-02-18T13:20:37.034Z,100535.53
2023-02-18T13:23:04.408Z,100540.44
2023-02-18T13:25:37.368Z,100533.47
2023-02-18T13:28:23.440Z,100534.50
2023-02-18T13:31:19.746Z,100532.41
2023-02-18T13:34:03.945Z,100535.13
2023-02-18T13:37:00.426Z,100529.75
2023-02-18T13:39:27.147Z,100526.53
2023-02-18T13:42:12.446Z,100526.56
2023-02-18T13:44:38.636Z,100529.53
2023-02-18T13:47:04.972Z,100530.75
2023-02-18T13:49:37.920Z,100538.00
2023-02-18T13:52:05.066Z,100534.03
2023-02-18T13:54:44.872Z,100532.91
2023-02-18T13:57:21.696Z,100532.75
2023-02-18T13:59:56.874Z,100533.91
2023-02-18T14:02:23.205Z,100536.75
2023-02-18T14:04:50.909Z,100538.94
2023-02-18T14:07:24.767Z,100535.47
2023-02-18T14:09:53.914Z,100533.88
2023-02-18T14:12:43.755Z,100536.75
2023-02-18T14:15:18.877Z,100538.06
2023-02-18T14:17:50.318Z,100538.31
2023-02-18T14:20:19.671Z,100539.06
2023-02-18T14:22:51.423Z,100546.91
2023-02-18T14:25:20.781Z,100546.31
2023-02-18T14:27:51.452Z,100544.66
2023-02-18T14:30:25.815Z,100542.53
2023-02-18T14:32:57.126Z,100546.38
2023-02-18T14:35:54.822Z,100545.75
2023-02-18T14:38:49.557Z,100552.84
2023-02-18T14:41:39.354Z,100558.31
2023-02-18T14:44:32.007Z,100564.88
2023-02-18T14:47:30.784Z,100558.25
2023-02-18T14:50:01.640Z,100568.00
2023-02-18T14:52:34.095Z,100575.06
2023-02-18T14:55:02.649Z,100573.47
2023-02-18T14:57:38.577Z,100564.25
2023-02-18T15:00:05.850Z,100574.50
2023-02-18T15:02:36.858Z,100580.75
2023-02-18T15:05:16.965Z,100594.44
2023-02-18T15:08:05.060Z,100585.19
2023-02-18T15:10:40.578Z,100577.91
2023-02-18T15:13:14.524Z,100586.72
2023-02-18T15:15:43.009Z,100578.91
2023-02-18T15:18:34.688Z,100586.53
2023-02-18T15:21:02.833Z,100593.59
2023-02-18T15:23:30.463Z,100588.16
2023-02-18T15:25:57.789Z,100597.44
2023-02-18T15:28:30.561Z,100600.19
2023-02-18T15:31:01.680Z,100598.41
2023-02-18T15:33:29.153Z,100603.22
2023-02-18T15:36:06.518Z,100599.22
2023-02-18T15:38:33.260Z,100605.97
2023-02-18T15:41:01.179Z,100605.16
2023-02-18T15:43:27.727Z,100604.00
2023-02-18T15:45:57.539Z,100588.88
2023-02-18T15:48:38.700Z,100604.34
2023-02-18T15:51:16.988Z,100605.13
2023-02-18T15:53:47.146Z,100600.28
2023-02-18T15:56:40.820Z,100601.97
2023-02-18T15:59:21.875Z,100611.72
2023-02-18T16:02:08.850Z,100613.63
2023-02-18T16:04:39.662Z,100608.91
2023-02-18T16:07:21.474Z,100607.25
2023-02-18T16:09:47.848Z,100607.34
2023-02-18T16:12:30.841Z,100612.53
2023-02-18T16:14:58.525Z,100619.28
2023-02-18T16:17:27.502Z,100609.25
2023-02-18T16:20:05.804Z,100614.84
2023-02-18T16:22:32.286Z,100633.84
2023-02-18T16:25:08.300Z,100631.13
2023-02-18T16:27:45.991Z,100628.44
2023-02-18T16:30:20.840Z,100629.53
2023-02-18T16:32:47.123Z,100626.06
2023-02-18T16:35:13.661Z,100621.16
2023-02-18T16:37:42.321Z,100633.81
2023-02-18T16:40:14.804Z,100619.81
2023-02-18T16:42:41.108Z,100635.50
2023-02-18T16:45:12.475Z,100632.22
2023-02-18T16:47:39.724Z,100631.72
2023-02-18T16:50:13.941Z,100630.13
2023-02-18T16:52:40.258Z,100633.38
2023-02-18T16:55:16.924Z,100639.91
2023-02-18T16:57:43.200Z,100653.72
2023-02-18T17:00:09.886Z,100648.78
2023-02-18T17:02:36.451Z,100644.91
2023-02-18T17:05:02.830Z,100647.47
2023-02-18T17:07:29.134Z,100656.06
2023-02-18T17:09:55.431Z,100647.94
2023-02-18T17:12:21.813Z,100659.41
2023-02-18T17:14:48.115Z,100663.09
2023-02-18T17:17:14.412Z,100660.13
2023-02-18T17:19:40.699Z,100663.09
2023-02-18T17:22:06.977Z,100666.69
2023-02-18T17:24:33.274Z,100668.38
2023-02-18T17:26:59.637Z,100667.00
2023-02-18T17:29:25.967Z,100668.38
2023-02-18T17:31:54.692Z,100658.00
2023-02-18T17:34:31.274Z,100669.66
2023-02-18T17:36:57.706Z,100674.50
2023-02-18T17:39:24.276Z,100681.06
2023-02-18T17:41:51.000Z,100681.34
2023-02-18T17:44:20.190Z,100680.25
2023-02-18T17:46:46.545Z,100685.97
2023-02-18T17:49:12.872Z,100690.34
2023-02-18T17:51:39.177Z,100688.19
2023-02-18T17:54:13.708Z,100688.97
2023-02-18T17:56:40.317Z,100701.69
2023-02-18T17:59:06.640Z,100701.75
2023-02-18T18:01:32.984Z,100694.16
2023-02-18T18:03:59.388Z,100706.31
2023-02-18T18:06:25.681Z,100714.47
2023-02-18T18:08:52.045Z,100707.91
2023-02-18T18:11:23.863Z,100708.19
2023-02-18T18:13:51.618Z,100705.75
2023-02-18T18:16:18.440Z,100706.53
2023-02-18T18:18:45.378Z,100703.31
2023-02-18T18:21:20.854Z,100707.72
2023-02-18T18:23:47.621Z,100712.63
2023-02-18T18:26:14.057Z,100713.16
2023-02-18T18:28:40.397Z,100710.72
2023-02-18T18:31:06.896Z,100705.88
2023-02-18T18:33:34.497Z,100702.06
2023-02-18T18:36:01.667Z,100717.50
2023-02-18T18:38:30.013Z,100710.97
2023-02-18T18:40:56.502Z,100710.41
2023-02-18T18:43:31.382Z,100724.50
2023-02-18T18:45:59.574Z,100725.06
2023-02-18T18:48:26.114Z,100717.53
2023-02-18T18:50:53.526Z,100726.22
2023-02-18T18:53:21.685Z,100729.03
2023-02-18T18:55:49.582Z,100729.81
2023-02-18T18:58:16.814Z,100726.56
2023-02-18T19:00:43.702Z,100723.56
2023-02-18T19:03:11.088Z,100729.84
2023-02-18T19:05:40.079Z,100732.78
2023-02-18T19:08:07.949Z,100733.31
2023-02-18T19:10:37.765Z,100727.69
2023-02-18T19:13:07.060Z,100729.84
2023-02-18T19:15:33.768Z,100725.28
2023-02-18T19:18:00.100Z,100729.09
2023-02-18T19:20:30.049Z,100732.88
2023-02-18T19:22:56.621Z,100732.06
2023-02-18T19:25:23.045Z,100731.53
2023-02-18T19:27:50.676Z,100732.06
2023-02-18T19:30:23.054Z,100730.16
2023-02-18T19:32:54.693Z,100725.28
2023-02-18T19:35:21.926Z,100723.69
2023-02-18T19:37:48.654Z,100724.19
2023-02-18T19:40:20.680Z,100720.94
2023-02-18T19:42:47.470Z,100725.00
2023-02-18T19:45:15.157Z,100726.91
2023-02-18T19:47:41.760Z,100727.19
2023-02-18T19:50:09.999Z,100736.41
2023-02-18T19:52:36.383Z,100724.44
2023-02-18T19:55:02.800Z,100717.44
2023-02-18T19:57:29.118Z,100718.28
2023-02-18T19:59:55.423Z,100723.69
2023-02-18T20:02:24.702Z,100720.44
2023-02-18T20:04:51.476Z,100723.97
2023-02-18T20:07:20.826Z,100720.94
2023-02-18T20:09:47.509Z,100720.38
2023-02-18T20:12:14.211Z,100712.50
2023-02-18T20:14:40.809Z,100710.09
2023-02-18T20:17:07.597Z,100697.66
2023-02-18T20:19:34.136Z,100703.34
2023-02-18T20:22:01.526Z,100707.94
2023-02-18T20:24:29.271Z,100700.88
2023-02-18T20:27:01.121Z,100708.50
2023-02-18T20:29:29.405Z,100703.88
2023-02-18T20:31:55.868Z,100699.50
2023-02-18T20:34:22.344Z,100708.44
2023-02-18T20:36:49.687Z,100696.78
2023-02-18T20:39:16.699Z,100685.75
2023-02-18T20:41:43.354Z,100678.97
2023-02-18T20:44:10.124Z,100685.47
2023-02-18T20:46:38.464Z,100687.41
2023-02-18T20:49:06.144Z,100692.50
2023-02-18T20:51:33.143Z,100695.72
2023-02-18T20:53:59.660Z,100694.88
2023-02-18T20:56:26.250Z,100687.31
2023-02-18T20:58:52.562Z,100686.25
2023-02-18T21:01:19.425Z,100681.88
2023-02-18T21:03:47.233Z,100677.84
2023-02-18T21:06:16.528Z,100676.50
2023-02-18T21:08:44.977Z,100684.56
2023-02-18T21:11:17.488Z,100683.25
2023-02-18T21:13:45.604Z,100678.16
2023-02-18T21:16:12.016Z,100677.84
2023-02-18T21:18:38.453Z,100682.44
2023-02-18T21:21:08.299Z,100682.44
2023-02-18T21:23:35.706Z,100677.28
2023-02-18T21:26:08.798Z,100674.88
2023-02-18T21:28:35.714Z,100674.41
2023-02-18T21:31:02.837Z,100683.03
2023-02-18T21:33:29.283Z,100670.28
2023-02-18T21:35:55.680Z,100666.53
2023-02-18T21:38:22.085Z,100668.38
2023-02-18T21:40:48.444Z,100669.72
2023-02-18T21:43:14.905Z,100668.34
2023-02-18T21:45:41.444Z,100664.84
2023-02-18T21:48:07.763Z,100666.44
2023-02-18T21:50:34.094Z,100661.25
2023-02-18T21:53:03.897Z,100663.16
2023-02-18T21:55:30.224Z,100666.66
2023-02-18T21:57:56.541Z,100661.28
2023-02-18T22:00:22.890Z,100662.41
2023-02-18T22:02:49.213Z,100652.72
2023-02-18T22:05:15.573Z,100641.34
2023-02-18T22:07:41.874Z,100640.72
2023-02-18T22:10:08.182Z,100649.97
2023-02-18T22:12:34.507Z,100645.69
2023-02-18T22:15:00.824Z,100656.03
2023-02-18T22:17:27.217Z,100651.69
2023-02-18T22:19:53.513Z,100638.94
2023-02-18T22:22:19.894Z,100640.81
2023-02-18T22:24:46.193Z,100652.19
2023-02-18T22:27:12.616Z,100649.75
2023-02-18T22:29:39.030Z,100639.75
2023-02-18T22:32:05.516Z,100641.16
2023-02-18T22:34:31.970Z,100630.84
2023-02-18T22:36:58.417Z,100646.00
2023-02-18T22:39:24.793Z,100638.44
2023-02-18T22:41:51.124Z,100633.81
2023-02-18T22:44:18.118Z,100621.09
2023-02-18T22:46:44.807Z,100622.22
2023-02-18T22:49:11.794Z,100609.00
2023-02-18T22:51:40.690Z,100603.38
2023-02-18T22:54:12.098Z,100608.22
2023-02-18T22:56:38.573Z,100603.03
2023-02-18T22:59:04.949Z,100611.16
2023-02-18T23:01:34.362Z,100598.50
2023-02-18T23:04:15.297Z,100594.47
2023-02-18T23:06:44.027Z,100598.50
2023-02-18T23:09:19.993Z,100597.94
2023-02-18T23:11:49.878Z,100582.81
2023-02-18T23:14:16.360Z,100572.75
2023-02-18T23:16:42.948Z,100574.09
2023-02-18T23:19:09.302Z,100578.22
2023-02-18T23:21:35.611Z,100554.88
2023-02-18T23:24:01.960Z,100540.84
2023-02-18T23:26:28.271Z,100550.56
2023-02-18T23:28:54.593Z,100548.97
2023-02-18T23:31:23.703Z,100544.63
2023-02-18T23:33:54.538Z,100558.25
2023-02-18T23:36:23.625Z,100554.13
2023-02-18T23:38:54.752Z,100556.00
2023-02-18T23:41:21.698Z,100552.19
2023-02-18T23:43:49.235Z,100543.22
2023-02-18T23:46:18.783Z,100546.13
2023-02-18T23:48:45.401Z,100539.09
2023-02-18T23:51:17.345Z,100524.47
2023-02-18T23:53:44.072Z,100535.16
2023-02-18T23:56:14.700Z,100527.84
2023-02-18T23:58:42.509Z,100531.38
